createdAt,value
2022-07-29T00:02:02.778Z,9.70
2022-07-29T00:04:31.620Z,9.23
2022-07-29T00:07:00.348Z,9.68
2022-07-29T00:09:29.054Z,9.95
2022-07-29T00:12:00.470Z,9.55
2022-07-29T00:14:30.175Z,9.73
2022-07-29T00:16:59.065Z,10.02
2022-07-29T00:19:30.237Z,9.13
2022-07-29T00:22:02.288Z,9.63
2022-07-29T00:24:30.937Z,10.00
2022-07-29T00:26:59.660Z,9.43
2022-07-29T00:29:34.161Z,10.15
2022-07-29T00:32:04.435Z,10.05
2022-07-29T00:34:51.839Z,9.95
2022-07-29T00:37:20.485Z,8.43
2022-07-29T00:39:49.428Z,8.32
2022-07-29T00:42:19.998Z,7.40
2022-07-29T00:44:49.112Z,6.80
2022-07-29T00:47:17.821Z,6.72
2022-07-29T00:49:47.122Z,5.38
2022-07-29T00:52:17.141Z,5.60
2022-07-29T00:54:46.321Z,5.10
2022-07-29T00:57:15.013Z,5.95
2022-07-29T00:59:43.621Z,4.63
2022-07-29T01:02:12.471Z,4.05
2022-07-29T01:04:42.135Z,4.22
2022-07-29T01:07:12.029Z,5.47
2022-07-29T01:09:45.449Z,3.72
2022-07-29T01:12:26.462Z,2.85
2022-07-29T01:14:57.604Z,3.05
2022-07-29T01:17:53.653Z,3.60
2022-07-29T01:21:03.156Z,2.83
2022-07-29T01:23:46.002Z,3.03
2022-07-29T01:26:35.816Z,3.13
2022-07-29T01:29:11.035Z,3.15
2022-07-29T01:31:59.444Z,3.80
2022-07-29T01:34:47.172Z,3.80
2022-07-29T01:37:22.087Z,3.88
2022-07-29T01:39:54.309Z,4.05
2022-07-29T01:42:36.212Z,4.85
2022-07-29T01:45:21.995Z,5.32
2022-07-29T01:48:04.518Z,6.55
2022-07-29T01:50:40.186Z,6.63
2022-07-29T01:53:12.508Z,6.95
2022-07-29T01:55:45.494Z,7.47
2022-07-29T01:58:16.195Z,7.38
2022-07-29T02:00:50.994Z,6.90
2022-07-29T02:03:21.101Z,9.50
2022-07-29T02:05:52.272Z,11.38
2022-07-29T02:08:21.683Z,7.93
2022-07-29T02:10:51.589Z,10.05
2022-07-29T02:13:22.783Z,6.80
2022-07-29T02:15:53.025Z,7.20
2022-07-29T02:18:24.524Z,6.57
2022-07-29T02:20:58.039Z,7.00
2022-07-29T02:23:28.078Z,7.97
2022-07-29T02:25:58.723Z,7.22
2022-07-29T02:28:30.415Z,9.65
2022-07-29T02:31:03.352Z,8.90
2022-07-29T02:33:33.183Z,8.98
2022-07-29T02:36:03.300Z,7.45
2022-07-29T02:38:52.015Z,7.25
2022-07-29T02:41:31.126Z,8.73
2022-07-29T02:44:07.046Z,7.05
2022-07-29T02:46:38.678Z,6.68
2022-07-29T02:49:45.480Z,7.47
2022-07-29T02:52:43.630Z,7.05
2022-07-29T02:55:36.762Z,4.95
2022-07-29T02:58:12.824Z,8.65
2022-07-29T03:00:42.831Z,15.35
2022-07-29T03:03:16.879Z,9.40
2022-07-29T03:05:45.633Z,10.63
2022-07-29T03:08:16.836Z,9.30
2022-07-29T03:10:47.535Z,13.02
2022-07-29T03:13:17.534Z,7.20
2022-07-29T03:15:47.924Z,5.70
2022-07-29T03:18:17.244Z,7.28
2022-07-29T03:20:46.013Z,5.97
2022-07-29T03:23:21.605Z,7.45
2022-07-29T03:25:51.545Z,5.40
2022-07-29T03:28:21.366Z,4.60
2022-07-29T03:30:51.920Z,4.30
2022-07-29T03:33:23.479Z,3.97
2022-07-29T03:35:52.013Z,3.80
2022-07-29T03:38:21.388Z,4.30
2022-07-29T03:41:03.209Z,3.33
2022-07-29T03:43:38.612Z,3.60
2022-07-29T03:46:20.067Z,2.90
2022-07-29T03:48:52.500Z,2.60
2022-07-29T03:51:33.214Z,2.20
2022-07-29T03:54:10.104Z,2.22
2022-07-29T03:56:49.928Z,1.80
2022-07-29T03:59:21.417Z,2.10
2022-07-29T04:01:50.919Z,2.70
2022-07-29T04:04:20.000Z,3.22
2022-07-29T04:06:49.243Z,3.45
2022-07-29T04:09:17.875Z,3.97
2022-07-29T04:12:02.306Z,4.10
2022-07-29T04:14:36.585Z,5.38
2022-07-29T04:17:06.261Z,5.68
2022-07-29T04:19:35.057Z,7.28
2022-07-29T04:22:03.582Z,7.15
2022-07-29T04:24:32.360Z,8.30
2022-07-29T04:27:01.119Z,7.90
2022-07-29T04:29:29.823Z,8.77
2022-07-29T04:31:58.681Z,9.13
2022-07-29T04:34:28.278Z,10.60
2022-07-29T04:36:57.784Z,9.85
2022-07-29T04:39:29.679Z,11.20
2022-07-29T04:41:59.377Z,9.55
2022-07-29T04:44:29.182Z,11.30
2022-07-29T04:46:58.722Z,10.63
2022-07-29T04:49:27.740Z,10.90
2022-07-29T04:51:56.401Z,12.20
2022-07-29T04:54:25.652Z,10.55
2022-07-29T04:56:54.942Z,10.35
2022-07-29T04:59:23.709Z,11.23
2022-07-29T05:01:52.431Z,12.00
2022-07-29T05:04:21.111Z,11.02
2022-07-29T05:06:50.370Z,12.15
2022-07-29T05:09:19.176Z,11.48
2022-07-29T05:11:48.133Z,10.98
2022-07-29T05:14:16.970Z,10.85
2022-07-29T05:16:48.833Z,10.27
2022-07-29T05:19:17.520Z,10.10
2022-07-29T05:21:46.981Z,9.32
2022-07-29T05:24:16.098Z,10.95
2022-07-29T05:26:45.323Z,9.80
2022-07-29T05:29:44.943Z,9.90
2022-07-29T05:32:02.917Z,9.57
2022-07-29T05:34:31.338Z,9.35
2022-07-29T05:37:00.399Z,9.88
2022-07-29T05:39:47.408Z,8.52
2022-07-29T05:42:17.641Z,8.25
2022-07-29T05:44:46.416Z,9.18
2022-07-29T05:47:15.524Z,8.77
2022-07-29T05:49:47.753Z,9.20
2022-07-29T05:52:16.926Z,9.93
2022-07-29T05:54:46.041Z,8.77
2022-07-29T05:57:19.547Z,8.95
2022-07-29T05:59:49.000Z,8.15
2022-07-29T06:02:18.039Z,8.60
2022-07-29T06:04:46.950Z,8.95
2022-07-29T06:07:15.658Z,8.40
2022-07-29T06:09:44.493Z,8.25
2022-07-29T06:12:13.183Z,8.50
2022-07-29T06:14:41.929Z,8.95
2022-07-29T06:17:10.474Z,8.80
2022-07-29T06:19:39.640Z,9.05
2022-07-29T06:22:08.414Z,9.40
2022-07-29T06:24:39.509Z,8.80
2022-07-29T06:27:08.190Z,8.95
2022-07-29T06:29:36.809Z,8.88
2022-07-29T06:32:06.234Z,8.73
2022-07-29T06:34:34.834Z,8.70
2022-07-29T06:37:08.848Z,8.00
2022-07-29T06:39:44.409Z,8.60
2022-07-29T06:42:13.134Z,9.23
2022-07-29T06:44:43.643Z,8.27
2022-07-29T06:47:12.125Z,8.48
2022-07-29T06:49:40.780Z,7.85
2022-07-29T06:52:09.755Z,7.68
2022-07-29T06:54:38.566Z,8.40
2022-07-29T06:57:07.366Z,10.18
2022-07-29T06:59:36.201Z,8.63
2022-07-29T07:02:05.357Z,7.72
2022-07-29T07:04:34.003Z,7.85
2022-07-29T07:07:02.761Z,8.45
2022-07-29T07:09:40.582Z,8.93
2022-07-29T07:12:10.634Z,7.70
2022-07-29T07:14:39.578Z,7.57
2022-07-29T07:17:08.862Z,7.22
2022-07-29T07:19:37.533Z,8.38
2022-07-29T07:22:06.315Z,7.68
2022-07-29T07:24:35.052Z,7.38
2022-07-29T07:27:03.750Z,7.85
2022-07-29T07:29:32.353Z,7.95
2022-07-29T07:32:01.505Z,7.22
2022-07-29T07:34:31.638Z,7.65
2022-07-29T07:37:00.784Z,7.55
2022-07-29T07:39:29.372Z,7.43
2022-07-29T07:41:58.083Z,7.70
2022-07-29T07:44:26.762Z,7.50
2022-07-29T07:46:55.422Z,7.45
2022-07-29T07:49:24.170Z,7.50
2022-07-29T07:51:54.310Z,7.05
2022-07-29T07:54:22.954Z,7.47
2022-07-29T07:56:52.996Z,7.70
2022-07-29T07:59:22.341Z,7.10
2022-07-29T08:01:55.381Z,10.30
2022-07-29T08:04:28.615Z,7.32
2022-07-29T08:06:59.518Z,7.45
2022-07-29T08:09:30.556Z,7.68
2022-07-29T08:12:01.464Z,7.80
2022-07-29T08:14:30.346Z,7.60
2022-07-29T08:16:59.344Z,7.82
2022-07-29T08:19:28.087Z,7.10
2022-07-29T08:21:56.666Z,7.53
2022-07-29T08:24:44.398Z,7.50
2022-07-29T08:27:40.666Z,7.90
2022-07-29T08:30:01.678Z,7.15
2022-07-29T08:32:52.543Z,6.35
2022-07-29T08:35:19.389Z,6.55
2022-07-29T08:37:48.390Z,6.80
2022-07-29T08:40:17.114Z,6.65
2022-07-29T08:42:46.195Z,6.55
2022-07-29T08:45:15.175Z,7.47
2022-07-29T08:47:47.014Z,7.53
2022-07-29T08:50:15.494Z,7.70
2022-07-29T08:52:46.003Z,8.40
2022-07-29T08:55:21.421Z,6.72
2022-07-29T08:57:54.310Z,6.90
2022-07-29T09:00:27.831Z,7.25
2022-07-29T09:03:00.554Z,7.57
2022-07-29T09:05:30.166Z,6.68
2022-07-29T09:07:59.310Z,6.38
2022-07-29T09:10:28.326Z,6.57
2022-07-29T09:12:57.272Z,7.32
2022-07-29T09:15:26.606Z,6.97
2022-07-29T09:17:56.899Z,6.82
2022-07-29T09:20:26.405Z,6.90
2022-07-29T09:22:55.576Z,6.50
2022-07-29T09:25:42.545Z,7.15
2022-07-29T09:28:16.665Z,7.10
2022-07-29T09:30:55.595Z,7.13
2022-07-29T09:33:26.107Z,6.90
2022-07-29T09:36:02.354Z,6.97
2022-07-29T09:38:33.799Z,7.05
2022-07-29T09:41:05.594Z,7.63
2022-07-29T09:43:36.129Z,6.70
2022-07-29T09:46:17.066Z,6.32
2022-07-29T09:48:46.043Z,8.15
2022-07-29T09:51:26.721Z,6.70
2022-07-29T09:54:02.154Z,6.43
2022-07-29T09:56:44.464Z,5.68
2022-07-29T09:59:13.934Z,7.38
2022-07-29T10:01:43.786Z,6.80
2022-07-29T10:04:12.595Z,5.80
2022-07-29T10:07:04.704Z,7.13
2022-07-29T10:09:35.150Z,6.60
2022-07-29T10:12:10.657Z,7.50
2022-07-29T10:14:40.406Z,7.50
2022-07-29T10:17:11.055Z,7.63
2022-07-29T10:19:40.694Z,7.43
2022-07-29T10:22:13.028Z,7.55
2022-07-29T10:24:41.845Z,7.25
2022-07-29T10:27:11.103Z,7.72
2022-07-29T10:29:39.917Z,7.70
2022-07-29T10:32:08.696Z,7.85
2022-07-29T10:35:12.627Z,7.68
2022-07-29T10:38:17.706Z,7.78
2022-07-29T10:41:23.222Z,8.35
2022-07-29T10:46:21.354Z,7.82
2022-07-29T10:49:25.067Z,7.82
2022-07-29T10:52:06.456Z,8.05
2022-07-29T10:54:43.873Z,9.10
2022-07-29T10:57:53.948Z,8.52
2022-07-29T11:00:20.318Z,8.10
2022-07-29T11:02:53.546Z,8.57
2022-07-29T11:05:23.139Z,7.90
2022-07-29T11:08:21.043Z,7.90
2022-07-29T11:11:17.480Z,7.40
2022-07-29T11:13:49.394Z,5.65
2022-07-29T11:16:21.294Z,6.65
2022-07-29T11:19:14.837Z,7.57
2022-07-29T11:21:55.390Z,6.18
2022-07-29T11:24:32.670Z,7.20
2022-07-29T11:27:19.767Z,7.22
2022-07-29T11:29:56.855Z,6.80
2022-07-29T11:32:37.154Z,7.00
2022-07-29T11:35:37.383Z,7.13
2022-07-29T11:38:31.817Z,5.43
2022-07-29T11:41:20.864Z,6.53
2022-07-29T11:43:54.915Z,6.18
2022-07-29T11:46:49.484Z,6.25
2022-07-29T11:49:32.340Z,6.13
2022-07-29T11:52:05.584Z,6.07
2022-07-29T11:54:38.681Z,6.60
2022-07-29T12:00:24.072Z,6.53
2022-07-29T12:02:53.365Z,6.55
2022-07-29T12:05:36.339Z,6.50
2022-07-29T12:07:03.447Z,6.00
2022-07-29T12:08:14.543Z,5.85
2022-07-29T12:10:45.127Z,6.15
2022-07-29T12:13:15.071Z,5.72
2022-07-29T12:15:47.362Z,7.13
2022-07-29T12:18:19.422Z,6.40
2022-07-29T12:21:03.667Z,5.75
2022-07-29T12:23:34.705Z,6.00
2022-07-29T12:26:10.926Z,6.57
2022-07-29T12:28:50.888Z,5.75
2022-07-29T12:31:42.302Z,5.47
2022-07-29T12:34:08.635Z,5.35
2022-07-29T12:36:39.364Z,4.55
2022-07-29T12:39:08.385Z,5.30
2022-07-29T12:41:37.263Z,5.47
2022-07-29T12:44:06.211Z,5.50
2022-07-29T12:46:34.765Z,5.50
2022-07-29T12:49:04.082Z,4.88
2022-07-29T12:51:33.983Z,5.00
2022-07-29T12:54:17.256Z,5.13
2022-07-29T12:56:46.915Z,5.25
2022-07-29T12:59:19.608Z,5.70
2022-07-29T13:01:50.985Z,5.07
2022-07-29T13:04:34.978Z,5.13
2022-07-29T13:07:10.535Z,4.45
2022-07-29T13:09:48.482Z,4.50
2022-07-29T13:12:17.203Z,4.30
2022-07-29T13:14:48.151Z,4.85
2022-07-29T13:17:22.523Z,5.68
2022-07-29T13:22:26.284Z,6.40
2022-07-29T13:24:56.882Z,5.25
2022-07-29T13:27:28.616Z,6.40
2022-07-29T13:29:59.593Z,4.57
2022-07-29T13:32:29.954Z,4.55
2022-07-29T13:35:00.569Z,4.40
2022-07-29T13:37:31.435Z,3.88
2022-07-29T13:40:01.010Z,4.00
2022-07-29T13:42:29.890Z,4.50
2022-07-29T13:44:58.458Z,4.35
2022-07-29T13:47:32.426Z,4.30
2022-07-29T13:50:03.236Z,4.38
2022-07-29T13:52:34.514Z,5.07
2022-07-29T13:55:04.098Z,5.38
2022-07-29T13:57:32.964Z,6.03
2022-07-29T14:00:01.511Z,6.82
2022-07-29T14:02:36.847Z,7.13
2022-07-29T14:05:08.699Z,5.53
2022-07-29T14:07:40.325Z,5.05
2022-07-29T14:10:09.536Z,5.43
2022-07-29T14:12:38.089Z,5.57
2022-07-29T14:15:07.360Z,6.38
2022-07-29T14:17:36.248Z,7.13
2022-07-29T14:20:06.229Z,6.00
2022-07-29T14:22:40.174Z,5.82
2022-07-29T14:25:15.040Z,5.70
2022-07-29T14:27:45.171Z,5.82
2022-07-29T14:30:14.596Z,5.82
2022-07-29T14:32:43.359Z,5.32
2022-07-29T14:35:12.316Z,5.38
2022-07-29T14:37:41.624Z,3.88
2022-07-29T14:40:11.887Z,4.72
2022-07-29T14:42:40.684Z,4.28
2022-07-29T14:45:11.038Z,5.00
2022-07-29T14:47:41.069Z,4.50
2022-07-29T14:50:10.111Z,4.68
2022-07-29T14:52:39.321Z,5.70
2022-07-29T14:55:16.668Z,6.18
2022-07-29T14:57:49.812Z,7.03
2022-07-29T15:00:19.354Z,6.38
2022-07-29T15:03:01.272Z,7.38
2022-07-29T15:05:31.040Z,6.20
2022-07-29T15:08:00.690Z,7.43
2022-07-29T15:10:29.995Z,6.43
2022-07-29T15:12:59.006Z,6.80
2022-07-29T15:15:28.139Z,9.20
2022-07-29T15:17:56.984Z,6.10
2022-07-29T15:20:27.411Z,8.32
2022-07-29T15:22:59.753Z,4.60
2022-07-29T15:25:28.600Z,3.58
2022-07-29T15:28:01.237Z,4.05
2022-07-29T15:30:34.469Z,4.63
2022-07-29T15:33:04.987Z,5.88
2022-07-29T15:35:40.541Z,4.38
2022-07-29T15:38:10.168Z,4.40
2022-07-29T15:40:42.955Z,5.43
2022-07-29T15:43:11.964Z,4.28
2022-07-29T15:46:03.472Z,5.30
2022-07-29T15:48:33.291Z,5.57
2022-07-29T15:51:01.892Z,5.45
2022-07-29T15:53:30.565Z,4.82
2022-07-29T15:55:59.241Z,5.43
2022-07-29T15:58:28.017Z,6.30
2022-07-29T16:00:56.839Z,7.10
2022-07-29T16:03:25.376Z,5.15
2022-07-29T16:05:54.073Z,6.28
2022-07-29T16:08:22.927Z,4.95
2022-07-29T16:10:51.720Z,4.40
2022-07-29T16:13:20.790Z,3.85
2022-07-29T16:16:02.633Z,6.10
2022-07-29T16:18:32.080Z,5.65
2022-07-29T16:21:00.824Z,4.30
2022-07-29T16:23:29.576Z,4.55
2022-07-29T16:26:00.105Z,4.53
2022-07-29T16:28:30.425Z,3.75
2022-07-29T16:30:59.465Z,3.70
2022-07-29T16:33:28.916Z,3.42
2022-07-29T16:36:18.965Z,3.85
2022-07-29T16:38:48.125Z,3.38
2022-07-29T16:41:16.729Z,3.28
2022-07-29T16:43:45.737Z,4.93
2022-07-29T16:46:18.445Z,3.40
2022-07-29T16:48:47.920Z,3.25
2022-07-29T16:51:17.518Z,4.60
2022-07-29T16:53:46.276Z,3.25
2022-07-29T16:56:18.577Z,2.30
2022-07-29T16:58:47.486Z,3.78
2022-07-29T17:01:16.879Z,3.50
2022-07-29T17:04:03.758Z,3.42
2022-07-29T17:06:33.457Z,3.20
2022-07-29T17:09:03.777Z,3.00
2022-07-29T17:11:51.762Z,3.10
2022-07-29T17:14:24.193Z,4.05
2022-07-29T17:17:00.294Z,3.45
2022-07-29T17:19:34.538Z,3.55
2022-07-29T17:22:14.060Z,3.20
2022-07-29T17:24:48.663Z,3.40
2022-07-29T17:27:17.275Z,3.40
2022-07-29T17:29:46.026Z,3.38
2022-07-29T17:32:14.974Z,3.10
2022-07-29T17:34:44.275Z,3.05
2022-07-29T17:37:13.427Z,3.40
2022-07-29T17:39:43.057Z,2.97
2022-07-29T17:42:14.007Z,3.50
2022-07-29T17:44:42.597Z,3.28
2022-07-29T17:47:15.973Z,3.38
2022-07-29T17:49:46.358Z,4.00
2022-07-29T17:52:15.239Z,3.63
2022-07-29T17:54:43.659Z,3.10
2022-07-29T17:57:12.377Z,3.50
2022-07-29T17:59:41.197Z,3.28
2022-07-29T18:02:10.609Z,3.25
2022-07-29T18:04:39.600Z,3.13
2022-07-29T18:07:08.317Z,3.25
2022-07-29T18:09:39.436Z,3.17
2022-07-29T18:12:08.736Z,7.15
2022-07-29T18:14:37.556Z,3.00
2022-07-29T18:17:06.356Z,5.50
2022-07-29T18:19:34.836Z,3.30
2022-07-29T18:22:05.434Z,4.75
2022-07-29T18:24:34.555Z,2.90
2022-07-29T18:27:03.272Z,3.40
2022-07-29T18:29:31.724Z,3.70
2022-07-29T18:32:00.650Z,3.10
2022-07-29T18:34:29.795Z,3.17
2022-07-29T18:36:58.711Z,3.13
2022-07-29T18:39:27.595Z,3.40
2022-07-29T18:41:56.306Z,3.10
2022-07-29T18:44:25.115Z,2.92
2022-07-29T18:46:54.120Z,3.30
2022-07-29T18:49:24.376Z,3.03
2022-07-29T18:51:53.148Z,3.00
2022-07-29T18:54:21.746Z,2.95
2022-07-29T18:56:50.642Z,2.90
2022-07-29T18:59:21.375Z,3.13
2022-07-29T19:01:50.794Z,10.05
2022-07-29T19:04:20.634Z,2.97
2022-07-29T19:06:50.935Z,3.65
2022-07-29T19:09:20.865Z,2.83
2022-07-29T19:11:55.585Z,3.75
2022-07-29T19:14:25.094Z,3.30
2022-07-29T19:16:54.281Z,3.80
2022-07-29T19:19:22.885Z,3.10
2022-07-29T19:21:51.889Z,3.88
2022-07-29T19:24:22.058Z,3.10
2022-07-29T19:26:50.856Z,3.03
2022-07-29T19:29:19.404Z,3.05
2022-07-29T19:31:48.376Z,3.20
2022-07-29T19:34:16.878Z,3.47
2022-07-29T19:36:45.803Z,3.13
2022-07-29T19:39:16.226Z,3.28
2022-07-29T19:41:45.028Z,6.30
2022-07-29T19:44:14.586Z,3.58
2022-07-29T19:46:44.236Z,3.58
2022-07-29T19:49:15.271Z,3.20
2022-07-29T19:51:44.131Z,3.55
2022-07-29T19:54:13.239Z,3.28
2022-07-29T19:56:42.474Z,3.80
2022-07-29T19:59:10.894Z,3.28
2022-07-29T20:01:41.392Z,4.00
2022-07-29T20:04:18.106Z,3.72
2022-07-29T20:06:47.183Z,3.85
2022-07-29T20:09:20.389Z,3.90
2022-07-29T20:11:52.280Z,4.47
2022-07-29T20:14:21.470Z,5.13
2022-07-29T20:16:51.088Z,4.20
2022-07-29T20:19:22.242Z,3.67
2022-07-29T20:21:52.233Z,3.92
2022-07-29T20:24:21.494Z,10.38
2022-07-29T20:26:51.628Z,3.90
2022-07-29T20:29:20.435Z,3.92
2022-07-29T20:31:52.270Z,5.13
2022-07-29T20:34:25.115Z,3.78
2022-07-29T20:36:54.638Z,4.57
2022-07-29T20:39:24.039Z,3.92
2022-07-29T20:41:52.906Z,4.25
2022-07-29T20:44:24.772Z,4.10
2022-07-29T20:46:53.500Z,4.10
2022-07-29T20:49:22.263Z,3.90
2022-07-29T20:51:51.334Z,3.80
2022-07-29T20:54:20.246Z,4.00
2022-07-29T20:56:49.424Z,3.78
2022-07-29T20:59:18.455Z,3.95
2022-07-29T21:01:47.116Z,4.65
2022-07-29T21:04:17.688Z,3.85
2022-07-29T21:06:46.744Z,4.45
2022-07-29T21:09:15.884Z,9.38
2022-07-29T21:11:45.281Z,4.47
2022-07-29T21:14:33.480Z,4.13
2022-07-29T21:17:02.784Z,4.82
2022-07-29T21:19:35.045Z,4.90
2022-07-29T21:22:04.175Z,4.90
2022-07-29T21:24:32.981Z,4.72
2022-07-29T21:27:21.578Z,4.03
2022-07-29T21:29:51.280Z,4.90
2022-07-29T21:32:27.600Z,5.68
2022-07-29T21:34:59.245Z,4.32
2022-07-29T21:37:28.846Z,4.38
2022-07-29T21:39:59.025Z,5.20
2022-07-29T21:42:27.855Z,4.38
2022-07-29T21:44:57.430Z,5.65
2022-07-29T21:47:27.748Z,5.32
2022-07-29T21:49:56.175Z,4.68
2022-07-29T21:52:24.781Z,4.43
2022-07-29T21:54:53.346Z,4.45
2022-07-29T21:57:21.945Z,4.80
2022-07-29T21:59:50.836Z,4.53
2022-07-29T22:02:19.750Z,4.68
2022-07-29T22:04:48.721Z,4.88
2022-07-29T22:07:17.652Z,5.45
2022-07-29T22:09:47.051Z,4.50
2022-07-29T22:12:16.625Z,5.65
2022-07-29T22:14:45.395Z,4.65
2022-07-29T22:17:16.813Z,4.68
2022-07-29T22:19:45.326Z,6.45
2022-07-29T22:22:14.290Z,4.65
2022-07-29T22:24:43.207Z,4.60
2022-07-29T22:27:12.571Z,5.20
2022-07-29T22:29:41.386Z,7.00
2022-07-29T22:32:10.148Z,4.80
2022-07-29T22:34:38.808Z,5.32
2022-07-29T22:37:07.590Z,4.47
2022-07-29T22:39:36.552Z,4.70
2022-07-29T22:42:05.553Z,4.55
2022-07-29T22:44:34.455Z,4.13
2022-07-29T22:47:04.271Z,8.25
2022-07-29T22:49:33.196Z,4.90
2022-07-29T22:52:02.104Z,4.85
2022-07-29T22:54:30.673Z,5.10
2022-07-29T22:56:59.745Z,7.55
2022-07-29T22:59:28.598Z,4.57
2022-07-29T23:01:57.445Z,4.65
2022-07-29T23:04:26.225Z,4.78
2022-07-29T23:06:55.370Z,4.68
2022-07-29T23:09:24.288Z,4.55
2022-07-29T23:11:52.936Z,4.95
2022-07-29T23:14:21.567Z,4.72
2022-07-29T23:16:50.494Z,4.88
2022-07-29T23:19:19.650Z,5.18
2022-07-29T23:21:48.793Z,4.95
2022-07-29T23:24:17.555Z,4.88
2022-07-29T23:26:46.254Z,5.18
2022-07-29T23:29:14.888Z,4.88
2022-07-29T23:31:45.921Z,5.30
2022-07-29T23:34:17.109Z,5.10
2022-07-29T23:36:45.639Z,4.68
2022-07-29T23:39:14.404Z,4.47
2022-07-29T23:41:43.820Z,4.50
2022-07-29T23:44:12.760Z,4.68
2022-07-29T23:46:41.462Z,4.30
2022-07-29T23:49:10.424Z,4.18
2022-07-29T23:51:39.283Z,4.38
2022-07-29T23:54:11.035Z,4.43
2022-07-29T23:56:39.722Z,4.35
2022-07-29T23:59:08.518Z,4.38
